createdAt,value
2017-06-03T00:01:37.462Z,42.40
2017-06-03T00:04:05.810Z,43.50
2017-06-03T00:06:34.118Z,43.30
2017-06-03T00:09:02.436Z,43.30
2017-06-03T00:11:30.832Z,43.60
2017-06-03T00:13:59.147Z,43.00
2017-06-03T00:16:27.455Z,43.90
2017-06-03T00:18:55.762Z,42.50
2017-06-03T00:21:24.094Z,43.20
2017-06-03T00:23:52.398Z,42.10
2017-06-03T00:26:20.726Z,41.90
2017-06-03T00:28:49.085Z,43.90
2017-06-03T00:31:17.466Z,44.50
2017-06-03T00:33:45.774Z,42.80
2017-06-03T00:36:14.076Z,42.90
2017-06-03T00:38:42.404Z,42.30
2017-06-03T00:41:10.713Z,43.40
2017-06-03T00:43:39.056Z,41.90
2017-06-03T00:46:07.362Z,44.60
2017-06-03T00:48:35.698Z,42.60
2017-06-03T00:51:04.091Z,42.20
2017-06-03T00:53:32.470Z,43.50
2017-06-03T00:56:00.850Z,43.60
2017-06-03T00:58:29.220Z,42.60
2017-06-03T01:00:57.528Z,42.90
2017-06-03T01:03:25.835Z,41.60
2017-06-03T01:05:54.178Z,41.80
2017-06-03T01:08:22.486Z,42.40
2017-06-03T01:10:50.839Z,42.30
2017-06-03T01:13:19.216Z,41.00
2017-06-03T01:15:47.593Z,41.00
2017-06-03T01:21:09.626Z,40.20
2017-06-03T01:23:37.930Z,41.00
2017-06-03T01:26:06.300Z,41.00
2017-06-03T01:28:34.678Z,40.10
2017-06-03T01:31:17.816Z,39.30
2017-06-03T01:33:46.171Z,40.90
2017-06-03T01:36:14.475Z,40.40
2017-06-03T01:38:42.849Z,40.60
2017-06-03T01:41:11.146Z,41.50
2017-06-03T01:43:39.482Z,42.10
2017-06-03T01:46:07.882Z,41.80
2017-06-03T01:48:36.222Z,42.90
2017-06-03T01:51:04.526Z,41.90
2017-06-03T01:53:32.918Z,43.30
2017-06-03T01:56:01.232Z,43.80
2017-06-03T01:58:29.578Z,44.00
2017-06-03T02:00:57.906Z,44.20
2017-06-03T02:03:26.234Z,45.60
2017-06-03T02:05:54.566Z,45.80
2017-06-03T02:08:22.891Z,46.00
2017-06-03T02:10:51.237Z,45.90
2017-06-03T02:13:19.553Z,46.10
2017-06-03T02:15:47.916Z,46.90
2017-06-03T02:18:16.229Z,47.60
2017-06-03T02:20:44.587Z,48.30
2017-06-03T02:23:12.905Z,48.60
2017-06-03T02:25:41.248Z,49.00
2017-06-03T02:28:09.579Z,49.10
2017-06-03T02:30:37.890Z,49.30
2017-06-03T02:33:06.222Z,49.20
2017-06-03T02:35:34.571Z,49.50
2017-06-03T02:38:02.922Z,50.30
2017-06-03T02:40:31.242Z,50.50
2017-06-03T02:42:59.580Z,50.50
2017-06-03T02:45:27.976Z,50.50
2017-06-03T02:47:56.358Z,51.40
2017-06-03T02:50:24.679Z,51.20
2017-06-03T02:52:53.003Z,51.40
2017-06-03T02:55:21.333Z,51.30
2017-06-03T02:57:49.642Z,51.40
2017-06-03T03:00:17.973Z,51.90
2017-06-03T03:02:46.274Z,51.40
2017-06-03T03:05:14.615Z,51.90
2017-06-03T03:07:42.982Z,53.00
2017-06-03T03:10:11.359Z,52.20
2017-06-03T03:12:39.687Z,51.70
2017-06-03T03:15:08.002Z,52.80
2017-06-03T03:17:36.356Z,52.60
2017-06-03T03:20:04.690Z,52.90
2017-06-03T03:22:33.016Z,52.80
2017-06-03T03:25:01.332Z,52.70
2017-06-03T03:27:29.675Z,52.80
2017-06-03T03:29:57.983Z,53.30
2017-06-03T03:32:26.403Z,54.20
2017-06-03T03:34:54.710Z,53.50
2017-06-03T03:37:23.046Z,53.80
2017-06-03T03:39:51.410Z,53.90
2017-06-03T03:42:19.739Z,53.50
2017-06-03T03:44:48.050Z,53.50
2017-06-03T03:47:16.482Z,53.20
2017-06-03T03:49:44.834Z,53.20
2017-06-03T03:52:13.144Z,53.50
2017-06-03T03:54:41.478Z,52.80
2017-06-03T03:57:09.810Z,53.60
2017-06-03T03:59:38.150Z,54.00
2017-06-03T04:02:06.550Z,56.40
2017-06-03T04:04:34.914Z,57.30
2017-06-03T04:07:03.313Z,59.40
2017-06-03T04:09:31.622Z,60.70
2017-06-03T04:11:59.946Z,62.40
2017-06-03T04:14:28.250Z,63.40
2017-06-03T04:16:56.558Z,64.20
2017-06-03T04:19:24.883Z,63.90
2017-06-03T04:21:53.252Z,64.50
2017-06-03T04:24:21.567Z,65.10
2017-06-03T04:26:50.272Z,65.70
2017-06-03T04:29:18.600Z,65.50
2017-06-03T04:31:46.940Z,65.00
2017-06-03T04:34:15.274Z,64.60
2017-06-03T04:36:43.590Z,65.20
2017-06-03T04:39:11.947Z,64.30
2017-06-03T04:41:40.278Z,63.60
2017-06-03T04:44:08.608Z,63.40
2017-06-03T04:46:37.051Z,63.90
2017-06-03T04:49:05.410Z,63.60
2017-06-03T04:51:33.747Z,64.00
2017-06-03T04:54:02.106Z,64.50
2017-06-03T04:56:30.437Z,65.00
2017-06-03T04:59:07.306Z,68.10
2017-06-03T05:01:35.612Z,68.70
2017-06-03T05:04:03.957Z,71.00
2017-06-03T05:06:32.266Z,68.70
2017-06-03T05:09:00.674Z,69.20
2017-06-03T05:11:28.989Z,69.70
2017-06-03T05:13:57.331Z,69.60
2017-06-03T05:16:25.711Z,70.50
2017-06-03T05:18:54.113Z,70.30
2017-06-03T05:21:22.443Z,70.20
2017-06-03T05:23:50.752Z,69.80
2017-06-03T05:26:19.155Z,70.70
2017-06-03T05:28:47.502Z,70.60
2017-06-03T05:31:15.809Z,69.70
2017-06-03T05:33:44.116Z,69.00
2017-06-03T05:36:12.429Z,70.50
2017-06-03T05:38:40.758Z,69.90
2017-06-03T05:41:09.201Z,71.20
2017-06-03T05:43:37.527Z,69.80
2017-06-03T05:46:05.863Z,69.30
2017-06-03T05:48:34.194Z,69.70
2017-06-03T05:51:02.522Z,70.00
2017-06-03T05:53:30.882Z,68.90
2017-06-03T05:55:59.186Z,68.50
2017-06-03T05:58:27.495Z,68.30
2017-06-03T06:01:30.603Z,68.30
2017-06-03T06:03:58.921Z,69.80
2017-06-03T06:06:26.499Z,69.70
2017-06-03T06:08:54.040Z,69.00
2017-06-03T06:11:21.633Z,69.30
2017-06-03T06:13:49.190Z,68.80
2017-06-03T06:16:16.732Z,68.80
2017-06-03T06:18:44.298Z,69.70
2017-06-03T06:21:11.878Z,70.60
2017-06-03T06:23:39.458Z,68.30
2017-06-03T06:26:07.767Z,68.40
2017-06-03T06:28:35.299Z,68.40
2017-06-03T06:31:03.604Z,68.50
2017-06-03T06:33:31.194Z,68.50
2017-06-03T06:35:58.731Z,66.00
2017-06-03T06:38:26.262Z,67.30
2017-06-03T06:40:54.592Z,65.50
2017-06-03T06:43:22.154Z,65.50
2017-06-03T06:45:49.691Z,65.90
2017-06-03T06:48:17.272Z,65.30
2017-06-03T06:50:44.806Z,67.10
2017-06-03T06:53:12.391Z,70.10
2017-06-03T06:55:39.970Z,66.40
2017-06-03T06:58:07.508Z,69.30
2017-06-03T07:00:35.039Z,68.90
2017-06-03T07:03:02.634Z,65.80
2017-06-03T07:05:30.171Z,66.90
2017-06-03T07:07:57.710Z,65.50
2017-06-03T07:10:26.012Z,67.90
2017-06-03T07:12:53.586Z,67.80
2017-06-03T07:15:21.154Z,66.70
2017-06-03T07:17:48.711Z,65.40
2017-06-03T07:20:16.246Z,66.40
2017-06-03T07:22:49.657Z,64.30
2017-06-03T07:25:17.204Z,66.40
2017-06-03T07:27:44.804Z,65.40
2017-06-03T07:30:12.359Z,65.00
2017-06-03T07:32:39.910Z,63.40
2017-06-03T07:35:07.491Z,62.90
2017-06-03T07:37:35.054Z,62.70
2017-06-03T07:40:02.607Z,66.00
2017-06-03T07:42:30.262Z,65.60
2017-06-03T07:44:57.797Z,66.20
2017-06-03T07:47:25.386Z,67.90
2017-06-03T07:49:52.947Z,67.40
2017-06-03T07:52:20.511Z,69.40
2017-06-03T07:54:48.099Z,69.70
2017-06-03T07:57:15.739Z,69.60
2017-06-03T07:59:43.283Z,68.90
2017-06-03T08:02:10.847Z,66.60
2017-06-03T08:04:38.406Z,65.60
2017-06-03T08:07:05.945Z,65.30
2017-06-03T08:09:33.471Z,65.70
2017-06-03T08:12:01.099Z,65.20
2017-06-03T08:14:28.755Z,64.40
2017-06-03T08:16:56.291Z,66.90
2017-06-03T08:19:23.824Z,65.70
2017-06-03T08:21:52.162Z,64.40
2017-06-03T08:24:19.734Z,64.30
2017-06-03T08:26:47.258Z,65.40
2017-06-03T08:29:14.796Z,65.80
2017-06-03T08:31:42.355Z,65.60
2017-06-03T08:34:10.670Z,64.80
2017-06-03T08:36:38.315Z,64.80
2017-06-03T08:39:05.884Z,65.60
2017-06-03T08:41:33.464Z,64.10
2017-06-03T08:44:01.023Z,64.50
2017-06-03T08:46:28.680Z,63.80
2017-06-03T08:48:56.227Z,65.20
2017-06-03T08:51:23.834Z,61.40
2017-06-03T08:53:51.364Z,65.30
2017-06-03T08:56:19.018Z,61.70
2017-06-03T08:58:46.589Z,63.50
2017-06-03T09:01:14.230Z,64.30
2017-06-03T09:03:41.794Z,60.80
2017-06-03T09:06:09.375Z,60.30
2017-06-03T09:08:36.989Z,61.00
2017-06-03T09:11:05.327Z,57.00
2017-06-03T09:13:32.926Z,56.90
2017-06-03T09:16:01.238Z,59.80
2017-06-03T09:18:28.832Z,59.60
2017-06-03T09:20:56.411Z,61.60
2017-06-03T09:23:23.950Z,59.00
2017-06-03T09:25:51.534Z,61.00
2017-06-03T09:28:19.071Z,62.10
2017-06-03T09:30:46.743Z,62.90
2017-06-03T09:33:14.273Z,63.00
2017-06-03T09:35:41.937Z,63.40
2017-06-03T09:38:09.506Z,64.80
2017-06-03T09:40:37.067Z,65.60
2017-06-03T09:43:04.611Z,64.90
2017-06-03T09:45:32.194Z,65.40
2017-06-03T09:47:59.722Z,66.30
2017-06-03T09:50:27.275Z,63.40
2017-06-03T09:52:54.870Z,62.70
2017-06-03T09:55:22.440Z,62.80
2017-06-03T09:57:49.975Z,62.70
2017-06-03T10:00:17.745Z,62.90
2017-06-03T10:02:45.326Z,61.70
2017-06-03T10:05:12.860Z,65.50
2017-06-03T10:07:40.442Z,63.20
2017-06-03T10:10:08.010Z,60.20
2017-06-03T10:12:35.562Z,64.90
2017-06-03T10:15:03.228Z,60.60
2017-06-03T10:17:30.783Z,65.30
2017-06-03T10:19:58.318Z,63.70
2017-06-03T10:22:25.850Z,60.10
2017-06-03T10:24:53.383Z,62.90
2017-06-03T10:27:21.021Z,66.20
2017-06-03T10:29:48.591Z,63.40
2017-06-03T10:32:16.222Z,65.60
2017-06-03T10:34:43.766Z,67.10
2017-06-03T10:37:12.071Z,61.70
2017-06-03T10:39:39.655Z,61.70
2017-06-03T10:42:07.191Z,68.20
2017-06-03T10:44:34.729Z,59.20
2017-06-03T10:47:03.060Z,60.00
2017-06-03T10:49:30.706Z,59.80
2017-06-03T10:55:10.918Z,60.40
2017-06-03T10:57:38.525Z,62.60
2017-06-03T11:00:06.125Z,62.30
2017-06-03T11:02:33.656Z,61.50
2017-06-03T11:05:01.246Z,63.40
2017-06-03T11:07:28.781Z,62.90
2017-06-03T11:09:56.565Z,60.30
2017-06-03T11:12:24.138Z,63.00
2017-06-03T11:14:51.693Z,57.60
2017-06-03T11:17:19.350Z,60.50
2017-06-03T11:19:46.881Z,58.70
2017-06-03T11:22:14.453Z,58.50
2017-06-03T11:24:42.034Z,60.90
2017-06-03T11:27:09.596Z,58.20
2017-06-03T11:29:37.158Z,59.10
2017-06-03T11:32:04.722Z,61.20
2017-06-03T11:34:32.270Z,61.10
2017-06-03T11:36:59.815Z,64.80
2017-06-03T11:39:27.405Z,65.60
2017-06-03T11:41:54.964Z,59.90
2017-06-03T11:44:22.627Z,59.30
2017-06-03T11:46:50.186Z,63.50
2017-06-03T11:49:17.762Z,63.10
2017-06-03T11:51:45.406Z,55.20
2017-06-03T11:54:13.068Z,56.90
2017-06-03T11:56:40.626Z,56.90
2017-06-03T11:59:08.199Z,57.80
2017-06-03T12:01:35.741Z,57.80
2017-06-03T12:04:03.297Z,56.20
2017-06-03T12:06:30.879Z,59.20
2017-06-03T12:08:58.439Z,57.50
2017-06-03T12:11:25.975Z,59.30
2017-06-03T12:13:53.562Z,58.90
2017-06-03T12:16:21.226Z,57.00
2017-06-03T12:18:48.764Z,60.90
2017-06-03T12:21:16.346Z,57.00
2017-06-03T12:23:43.881Z,55.60
2017-06-03T12:26:11.418Z,56.30
2017-06-03T12:28:39.739Z,58.30
2017-06-03T12:31:07.274Z,58.20
2017-06-03T12:33:34.857Z,54.70
2017-06-03T12:36:02.427Z,59.30
2017-06-03T12:38:30.002Z,55.60
2017-06-03T12:40:57.543Z,55.30
2017-06-03T12:43:25.111Z,57.10
2017-06-03T12:45:52.670Z,59.30
2017-06-03T12:48:20.215Z,58.30
2017-06-03T12:50:47.790Z,56.10
2017-06-03T12:53:15.354Z,59.70
2017-06-03T12:55:42.915Z,59.30
2017-06-03T12:58:10.452Z,61.70
2017-06-03T13:00:37.982Z,59.10
2017-06-03T13:03:06.317Z,58.20
2017-06-03T13:05:33.874Z,58.20
2017-06-03T13:08:01.405Z,58.00
2017-06-03T13:10:28.950Z,61.50
2017-06-03T13:12:56.554Z,63.00
2017-06-03T13:15:24.114Z,60.10
2017-06-03T13:17:51.660Z,60.50
2017-06-03T13:20:19.247Z,62.40
2017-06-03T13:22:46.891Z,60.50
2017-06-03T13:25:14.466Z,59.80
2017-06-03T13:27:42.005Z,60.80
2017-06-03T13:30:09.585Z,62.10
2017-06-03T13:32:37.126Z,63.10
2017-06-03T13:35:04.694Z,64.20
2017-06-03T13:37:32.238Z,61.40
2017-06-03T13:39:59.822Z,60.40
2017-06-03T13:42:27.390Z,61.70
2017-06-03T13:44:54.948Z,63.40
2017-06-03T13:47:22.486Z,66.90
2017-06-03T13:49:50.026Z,61.80
2017-06-03T13:52:17.590Z,63.20
2017-06-03T13:54:45.186Z,61.20
2017-06-03T13:57:12.752Z,60.60
2017-06-03T13:59:40.310Z,62.70
2017-06-03T14:02:07.870Z,60.70
2017-06-03T14:04:35.423Z,61.00
2017-06-03T14:07:03.091Z,63.80
2017-06-03T14:09:30.653Z,63.20
2017-06-03T14:12:17.810Z,65.80
2017-06-03T14:14:46.154Z,64.90
2017-06-03T14:17:13.715Z,64.90
2017-06-03T14:19:41.274Z,60.40
2017-06-03T14:22:08.930Z,60.50
2017-06-03T14:24:36.471Z,61.80
2017-06-03T14:27:04.043Z,63.30
2017-06-03T14:29:31.610Z,61.40
2017-06-03T14:31:59.278Z,63.00
2017-06-03T14:34:26.814Z,62.60
2017-06-03T14:36:54.403Z,62.80
2017-06-03T14:39:21.966Z,65.00
2017-06-03T14:41:49.531Z,65.40
2017-06-03T14:44:17.068Z,65.70
2017-06-03T14:46:44.651Z,66.90
2017-06-03T14:49:12.204Z,64.40
2017-06-03T14:51:39.770Z,67.00
2017-06-03T14:54:07.334Z,65.30
2017-06-03T14:56:34.885Z,61.40
2017-06-03T14:59:02.557Z,59.60
2017-06-03T15:01:30.106Z,61.60
2017-06-03T15:03:57.644Z,61.40
2017-06-03T15:06:25.183Z,62.10
2017-06-03T15:08:53.508Z,62.90
2017-06-03T15:11:21.072Z,62.70
2017-06-03T15:13:48.628Z,62.60
2017-06-03T15:16:16.166Z,62.80
2017-06-03T15:18:43.704Z,64.30
2017-06-03T15:21:12.033Z,65.10
2017-06-03T15:23:39.591Z,65.10
2017-06-03T15:26:07.163Z,65.20
2017-06-03T15:28:34.700Z,63.70
2017-06-03T15:31:02.278Z,64.10
2017-06-03T15:33:29.840Z,65.80
2017-06-03T15:35:57.406Z,62.70
2017-06-03T15:38:25.061Z,62.90
2017-06-03T15:40:52.618Z,63.20
2017-06-03T15:43:20.187Z,64.70
2017-06-03T15:45:47.731Z,65.30
2017-06-03T15:48:15.298Z,66.70
2017-06-03T15:50:42.866Z,68.00
2017-06-03T15:53:10.431Z,66.30
2017-06-03T15:55:37.979Z,67.40
2017-06-03T15:58:05.532Z,66.50
2017-06-03T16:00:33.109Z,66.10
2017-06-03T16:03:00.666Z,67.20
2017-06-03T16:05:28.230Z,67.20
2017-06-03T16:07:55.794Z,69.60
2017-06-03T16:10:23.447Z,68.40
2017-06-03T16:12:50.993Z,69.80
2017-06-03T16:15:18.585Z,69.50
2017-06-03T16:17:46.135Z,69.90
2017-06-03T16:20:13.679Z,70.10
2017-06-03T16:22:41.250Z,69.20
2017-06-03T16:25:08.806Z,70.60
2017-06-03T16:27:37.394Z,69.60
2017-06-03T16:30:04.957Z,69.40
2017-06-03T16:32:32.620Z,69.70
2017-06-03T16:35:00.186Z,69.60
2017-06-03T16:37:27.842Z,71.50
2017-06-03T16:39:55.387Z,72.80
2017-06-03T16:42:22.963Z,70.20
2017-06-03T16:44:50.498Z,70.10
2017-06-03T16:47:18.102Z,70.20
2017-06-03T16:49:45.638Z,69.20
2017-06-03T16:52:13.213Z,69.00
2017-06-03T16:54:40.883Z,70.50
2017-06-03T16:57:08.418Z,70.30
2017-06-03T16:59:35.974Z,67.70
2017-06-03T17:02:03.553Z,68.40
2017-06-03T17:04:31.226Z,68.10
2017-06-03T17:06:58.786Z,70.50
2017-06-03T17:09:26.434Z,70.60
2017-06-03T17:11:54.003Z,68.80
2017-06-03T17:14:21.550Z,69.20
2017-06-03T17:16:49.130Z,68.60
2017-06-03T17:19:16.685Z,70.90
2017-06-03T17:21:44.342Z,71.10
2017-06-03T17:24:11.906Z,71.90
2017-06-03T17:26:54.630Z,71.50
2017-06-03T17:29:22.186Z,75.00
2017-06-03T17:31:49.718Z,77.60
2017-06-03T17:34:17.309Z,79.20
2017-06-03T17:36:44.901Z,79.90
2017-06-03T17:39:12.534Z,80.50
2017-06-03T17:41:40.072Z,81.30
2017-06-03T17:44:07.658Z,81.50
2017-06-03T17:46:35.214Z,81.70
2017-06-03T17:49:02.752Z,81.20
2017-06-03T17:51:30.331Z,81.50
2017-06-03T17:53:57.890Z,81.20
2017-06-03T17:56:25.462Z,80.30
2017-06-03T17:58:53.116Z,80.80
2017-06-03T18:01:20.650Z,79.50
2017-06-03T18:03:48.190Z,77.70
2017-06-03T18:06:16.551Z,77.10
2017-06-03T18:08:44.179Z,77.00
2017-06-03T18:11:11.722Z,75.60
2017-06-03T18:13:39.318Z,74.20
2017-06-03T18:16:06.878Z,74.40
2017-06-03T18:18:34.442Z,75.10
2017-06-03T18:21:07.760Z,75.30
2017-06-03T18:23:35.306Z,74.50
2017-06-03T18:26:02.848Z,73.90
2017-06-03T18:28:30.403Z,74.00
2017-06-03T18:30:57.975Z,74.60
2017-06-03T18:33:25.559Z,74.80
2017-06-03T18:35:53.196Z,73.80
2017-06-03T18:38:20.760Z,74.20
2017-06-03T18:40:48.393Z,72.30
2017-06-03T18:43:15.965Z,72.60
2017-06-03T18:45:43.657Z,71.40
2017-06-03T18:48:11.190Z,71.80
2017-06-03T18:50:38.775Z,73.00
2017-06-03T18:53:06.347Z,73.20
2017-06-03T18:55:34.697Z,71.20
2017-06-03T18:58:02.270Z,71.80
2017-06-03T19:00:29.835Z,71.70
2017-06-03T19:02:57.403Z,72.30
2017-06-03T19:05:24.965Z,72.70
2017-06-03T19:07:52.522Z,73.20
2017-06-03T19:10:20.181Z,73.30
2017-06-03T19:12:47.782Z,73.70
2017-06-03T19:15:16.186Z,75.80
2017-06-03T19:17:43.726Z,75.70
2017-06-03T19:20:12.034Z,77.90
2017-06-03T19:22:39.608Z,77.80
2017-06-03T19:25:07.167Z,79.10
2017-06-03T19:27:34.726Z,79.40
2017-06-03T19:30:02.299Z,79.40
2017-06-03T19:32:29.894Z,79.80
2017-06-03T19:34:58.193Z,80.00
2017-06-03T19:37:25.793Z,80.00
2017-06-03T19:39:53.330Z,79.90
2017-06-03T19:42:20.874Z,80.00
2017-06-03T19:44:48.463Z,80.70
2017-06-03T19:47:16.030Z,81.10
2017-06-03T19:49:43.642Z,81.20
2017-06-03T19:52:11.994Z,82.30
2017-06-03T19:54:39.583Z,82.20
2017-06-03T19:57:07.890Z,84.10
2017-06-03T19:59:35.471Z,83.40
2017-06-03T20:02:03.050Z,83.30
2017-06-03T20:04:30.634Z,83.10
2017-06-03T20:06:58.195Z,83.40
2017-06-03T20:09:25.805Z,83.90
2017-06-03T20:11:53.398Z,82.90
2017-06-03T20:14:21.019Z,84.90
2017-06-03T20:16:48.655Z,83.10
2017-06-03T20:19:16.973Z,84.40
2017-06-03T20:21:44.558Z,84.20
2017-06-03T20:24:12.155Z,84.40
2017-06-03T20:26:40.487Z,83.90
2017-06-03T20:29:08.055Z,83.90
2017-06-03T20:31:48.515Z,84.30
2017-06-03T20:34:16.181Z,84.50
2017-06-03T20:36:43.765Z,84.90
2017-06-03T20:39:11.406Z,85.30
2017-06-03T20:41:38.956Z,84.80
2017-06-03T20:44:06.535Z,84.30
2017-06-03T20:46:34.160Z,85.20
2017-06-03T20:49:01.796Z,85.30
2017-06-03T20:51:36.991Z,87.60
2017-06-03T20:54:04.551Z,87.40
2017-06-03T20:56:32.127Z,87.00
2017-06-03T20:58:59.670Z,87.90
2017-06-03T21:01:27.226Z,88.50
2017-06-03T21:03:54.799Z,86.30
2017-06-03T21:06:22.355Z,88.60
2017-06-03T21:08:49.927Z,88.20
2017-06-03T21:11:17.478Z,88.60
2017-06-03T21:13:45.064Z,90.00
2017-06-03T21:16:12.627Z,88.90
2017-06-03T21:18:40.167Z,90.10
2017-06-03T21:21:07.714Z,90.10
2017-06-03T21:23:35.289Z,90.30
2017-06-03T21:26:02.853Z,90.80
2017-06-03T21:28:30.406Z,91.40
2017-06-03T21:30:57.978Z,91.50
2017-06-03T21:33:25.532Z,91.80
2017-06-03T21:35:54.496Z,91.40
2017-06-03T21:38:22.088Z,91.40
2017-06-03T21:40:49.748Z,92.00
2017-06-03T21:43:17.408Z,92.20
2017-06-03T21:45:44.954Z,92.50
2017-06-03T21:48:12.527Z,93.00
2017-06-03T21:50:40.115Z,93.10
2017-06-03T21:53:07.670Z,92.90
2017-06-03T21:55:35.307Z,93.50
2017-06-03T21:58:02.859Z,93.60
2017-06-03T22:00:30.442Z,93.60
2017-06-03T22:02:58.093Z,93.70
2017-06-03T22:05:25.658Z,93.80
2017-06-03T22:07:53.219Z,94.00
2017-06-03T22:10:20.761Z,93.50
2017-06-03T22:12:48.314Z,94.10
2017-06-03T22:15:15.899Z,94.40
2017-06-03T22:17:43.440Z,94.40
2017-06-03T22:20:10.982Z,94.70
2017-06-03T22:22:38.518Z,94.80
2017-06-03T22:25:06.849Z,95.10
2017-06-03T22:27:34.421Z,95.20
2017-06-03T22:30:01.955Z,94.80
2017-06-03T22:32:29.501Z,95.40
2017-06-03T22:34:57.104Z,95.30
2017-06-03T22:37:24.703Z,95.20
2017-06-03T22:39:53.013Z,95.20
2017-06-03T22:42:20.606Z,95.20
2017-06-03T22:44:48.166Z,95.30
2017-06-03T22:47:15.714Z,95.20
2017-06-03T22:49:43.269Z,95.80
2017-06-03T22:52:10.810Z,95.50
2017-06-03T22:54:38.413Z,95.60
2017-06-03T22:57:05.952Z,95.90
2017-06-03T22:59:33.527Z,95.70
2017-06-03T23:02:01.084Z,95.40
2017-06-03T23:04:28.623Z,95.30
2017-06-03T23:06:56.158Z,95.50
2017-06-03T23:09:24.489Z,95.30
2017-06-03T23:11:52.150Z,95.20
2017-06-03T23:14:19.714Z,95.30
2017-06-03T23:16:47.278Z,95.30
2017-06-03T23:19:14.940Z,95.60
2017-06-03T23:21:42.500Z,95.50
2017-06-03T23:24:10.034Z,95.50
2017-06-03T23:26:37.622Z,94.90
2017-06-03T23:29:05.175Z,95.30
2017-06-03T23:31:32.728Z,94.80
2017-06-03T23:34:00.406Z,94.80
2017-06-03T23:36:27.951Z,94.20
2017-06-03T23:38:55.630Z,95.10
2017-06-03T23:41:23.172Z,94.70
2017-06-03T23:43:50.750Z,95.00
2017-06-03T23:46:18.282Z,94.80
2017-06-03T23:48:45.820Z,94.80
2017-06-03T23:51:14.127Z,94.80
2017-06-03T23:53:41.710Z,94.80
2017-06-03T23:56:09.394Z,94.90
2017-06-03T23:58:37.105Z,95.00
